sensor_id;sensor_type;location;lat;lon;timestamp;temperature;humidity
51011;DHT22;37038;50.182;8.624;2022-11-04T00:02:21;10.90;99.90
51011;DHT22;37038;50.182;8.624;2022-11-04T00:05:23;10.90;99.90
51011;DHT22;37038;50.182;8.624;2022-11-04T00:08:43;10.90;99.90
51011;DHT22;37038;50.182;8.624;2022-11-04T00:11:31;10.90;99.90
51011;DHT22;37038;50.182;8.624;2022-11-04T00:14:52;10.80;99.90
51011;DHT22;37038;50.182;8.624;2022-11-04T00:18:08;10.80;99.90
51011;DHT22;37038;50.182;8.624;2022-11-04T00:21:04;10.80;99.90
51011;DHT22;37038;50.182;8.624;2022-11-04T00:24:28;10.80;99.90
51011;DHT22;37038;50.182;8.624;2022-11-04T00:27:49;10.80;99.90
51011;DHT22;37038;50.182;8.624;2022-11-04T00:31:05;10.80;99.90
51011;DHT22;37038;50.182;8.624;2022-11-04T00:34:16;10.80;99.90
51011;DHT22;37038;50.182;8.624;2022-11-04T00:37:04;10.90;99.90
51011;DHT22;37038;50.182;8.624;2022-11-04T00:40:03;10.90;99.90
51011;DHT22;37038;50.182;8.624;2022-11-04T00:43:06;10.90;99.90
51011;DHT22;37038;50.182;8.624;2022-11-04T00:46:28;10.80;99.90
51011;DHT22;37038;50.182;8.624;2022-11-04T00:49:24;10.80;99.90
51011;DHT22;37038;50.182;8.624;2022-11-04T00:52:15;10.80;99.90
51011;DHT22;37038;50.182;8.624;2022-11-04T00:55:08;10.80;99.90
51011;DHT22;37038;50.182;8.624;2022-11-04T00:57:57;10.90;99.90
51011;DHT22;37038;50.182;8.624;2022-11-04T01:01:18;10.90;99.90
51011;DHT22;37038;50.182;8.624;2022-11-04T01:04:12;10.90;99.90
51011;DHT22;37038;50.182;8.624;2022-11-04T01:07:16;10.90;99.90
51011;DHT22;37038;50.182;8.624;2022-11-04T01:10:07;10.90;99.90
51011;DHT22;37038;50.182;8.624;2022-11-04T01:13:13;10.90;99.90
51011;DHT22;37038;50.182;8.624;2022-11-04T01:16:12;10.90;99.90
51011;DHT22;37038;50.182;8.624;2022-11-04T01:19:00;10.90;99.90
51011;DHT22;37038;50.182;8.624;2022-11-04T01:21:50;10.90;99.90
51011;DHT22;37038;50.182;8.624;2022-11-04T01:24:43;10.90;99.90
51011;DHT22;37038;50.182;8.624;2022-11-04T01:27:39;10.90;99.90
51011;DHT22;37038;50.182;8.624;2022-11-04T01:30:32;10.90;99.90
51011;DHT22;37038;50.182;8.624;2022-11-04T01:33:26;11.00;99.90
51011;DHT22;37038;50.182;8.624;2022-11-04T01:36:15;10.90;99.90
51011;DHT22;37038;50.182;8.624;2022-11-04T01:39:12;10.90;99.90
51011;DHT22;37038;50.182;8.624;2022-11-04T01:42:20;10.80;99.90
51011;DHT22;37038;50.182;8.624;2022-11-04T01:45:14;10.80;99.90
51011;DHT22;37038;50.182;8.624;2022-11-04T01:48:14;10.90;99.90
51011;DHT22;37038;50.182;8.624;2022-11-04T01:51:10;10.80;99.90
51011;DHT22;37038;50.182;8.624;2022-11-04T01:54:04;10.80;99.90
51011;DHT22;37038;50.182;8.624;2022-11-04T01:57:07;10.80;99.90
51011;DHT22;37038;50.182;8.624;2022-11-04T02:03:38;10.80;99.90
51011;DHT22;37038;50.182;8.624;2022-11-04T02:06:37;10.70;99.90
51011;DHT22;37038;50.182;8.624;2022-11-04T02:09:29;10.70;99.90
51011;DHT22;37038;50.182;8.624;2022-11-04T02:12:18;10.70;99.90
51011;DHT22;37038;50.182;8.624;2022-11-04T02:15:39;10.60;99.90
51011;DHT22;37038;50.182;8.624;2022-11-04T02:22:06;10.50;99.90
51011;DHT22;37038;50.182;8.624;2022-11-04T02:42:27;10.20;99.90
51011;DHT22;37038;50.182;8.624;2022-11-04T02:49:27;10.20;99.90
51011;DHT22;37038;50.182;8.624;2022-11-04T02:52:35;10.10;99.90
51011;DHT22;37038;50.182;8.624;2022-11-04T02:56:04;10.20;99.90
51011;DHT22;37038;50.182;8.624;2022-11-04T02:59:08;10.20;99.90
51011;DHT22;37038;50.182;8.624;2022-11-04T03:02:15;10.10;99.90
51011;DHT22;37038;50.182;8.624;2022-11-04T03:05:47;10.10;99.90
51011;DHT22;37038;50.182;8.624;2022-11-04T03:08:52;10.10;99.90
51011;DHT22;37038;50.182;8.624;2022-11-04T03:11:59;10.10;99.90
51011;DHT22;37038;50.182;8.624;2022-11-04T03:15:12;10.20;99.90
51011;DHT22;37038;50.182;8.624;2022-11-04T03:21:13;10.20;99.90
51011;DHT22;37038;50.182;8.624;2022-11-04T03:24:07;10.10;99.90
51011;DHT22;37038;50.182;8.624;2022-11-04T03:27:04;10.10;99.90
51011;DHT22;37038;50.182;8.624;2022-11-04T03:30:09;10.00;99.90
51011;DHT22;37038;50.182;8.624;2022-11-04T03:33:26;10.00;99.90
51011;DHT22;37038;50.182;8.624;2022-11-04T03:36:41;10.00;99.90
51011;DHT22;37038;50.182;8.624;2022-11-04T03:39:33;10.00;99.90
51011;DHT22;37038;50.182;8.624;2022-11-04T03:42:29;10.00;99.90
51011;DHT22;37038;50.182;8.624;2022-11-04T03:45:22;10.00;99.90
51011;DHT22;37038;50.182;8.624;2022-11-04T03:48:18;9.90;99.90
51011;DHT22;37038;50.182;8.624;2022-11-04T03:51:10;9.90;99.90
51011;DHT22;37038;50.182;8.624;2022-11-04T03:54:01;9.90;99.90
51011;DHT22;37038;50.182;8.624;2022-11-04T04:00:26;9.80;99.90
51011;DHT22;37038;50.182;8.624;2022-11-04T04:06:53;9.70;99.90
51011;DHT22;37038;50.182;8.624;2022-11-04T04:10:00;9.60;99.90
51011;DHT22;37038;50.182;8.624;2022-11-04T04:12:56;9.60;99.90
51011;DHT22;37038;50.182;8.624;2022-11-04T04:16:28;9.50;99.90
51011;DHT22;37038;50.182;8.624;2022-11-04T04:19:28;9.50;99.90
51011;DHT22;37038;50.182;8.624;2022-11-04T04:22:54;9.50;99.90
51011;DHT22;37038;50.182;8.624;2022-11-04T04:25:51;9.40;99.90
51011;DHT22;37038;50.182;8.624;2022-11-04T04:29:30;9.40;99.90
51011;DHT22;37038;50.182;8.624;2022-11-04T04:35:56;9.40;99.90
51011;DHT22;37038;50.182;8.624;2022-11-04T04:39:26;9.30;99.90
51011;DHT22;37038;50.182;8.624;2022-11-04T04:43:03;9.20;99.90
51011;DHT22;37038;50.182;8.624;2022-11-04T04:46:40;9.10;99.90
51011;DHT22;37038;50.182;8.624;2022-11-04T04:49:32;9.00;99.90
51011;DHT22;37038;50.182;8.624;2022-11-04T04:52:50;9.00;99.90
51011;DHT22;37038;50.182;8.624;2022-11-04T04:55:51;9.00;99.90
51011;DHT22;37038;50.182;8.624;2022-11-04T04:58:56;8.90;99.90
51011;DHT22;37038;50.182;8.624;2022-11-04T05:02:22;8.80;99.90
51011;DHT22;37038;50.182;8.624;2022-11-04T05:05:20;8.80;99.90
51011;DHT22;37038;50.182;8.624;2022-11-04T05:08:59;8.80;99.90
51011;DHT22;37038;50.182;8.624;2022-11-04T05:11:47;8.70;99.90
51011;DHT22;37038;50.182;8.624;2022-11-04T05:14:46;8.70;99.90
51011;DHT22;37038;50.182;8.624;2022-11-04T05:18:07;8.60;99.90
51011;DHT22;37038;50.182;8.624;2022-11-04T05:21:21;8.60;99.90
51011;DHT22;37038;50.182;8.624;2022-11-04T05:24:14;8.70;99.90
51011;DHT22;37038;50.182;8.624;2022-11-04T05:27:02;8.60;99.90
51011;DHT22;37038;50.182;8.624;2022-11-04T05:29:50;8.60;99.90
51011;DHT22;37038;50.182;8.624;2022-11-04T05:32:41;8.60;99.90
51011;DHT22;37038;50.182;8.624;2022-11-04T05:35:35;8.60;99.90
51011;DHT22;37038;50.182;8.624;2022-11-04T05:38:33;8.60;99.90
51011;DHT22;37038;50.182;8.624;2022-11-04T05:41:24;8.60;99.90
51011;DHT22;37038;50.182;8.624;2022-11-04T05:44:12;8.50;99.90
51011;DHT22;37038;50.182;8.624;2022-11-04T05:47:02;8.60;99.90
51011;DHT22;37038;50.182;8.624;2022-11-04T05:49:50;8.50;99.90
51011;DHT22;37038;50.182;8.624;2022-11-04T05:52:39;8.60;99.90
51011;DHT22;37038;50.182;8.624;2022-11-04T05:55:27;8.60;99.90
51011;DHT22;37038;50.182;8.624;2022-11-04T05:58:21;8.60;99.90
51011;DHT22;37038;50.182;8.624;2022-11-04T06:01:32;8.40;99.90
51011;DHT22;37038;50.182;8.624;2022-11-04T06:09:25;8.50;99.90
51011;DHT22;37038;50.182;8.624;2022-11-04T06:29:32;9.00;99.90
51011;DHT22;37038;50.182;8.624;2022-11-04T06:33:11;9.10;99.90
51011;DHT22;37038;50.182;8.624;2022-11-04T06:59:45;9.10;99.90
51011;DHT22;37038;50.182;8.624;2022-11-04T07:03:16;9.30;99.90
51011;DHT22;37038;50.182;8.624;2022-11-04T07:06:46;9.50;99.90
51011;DHT22;37038;50.182;8.624;2022-11-04T07:13:29;10.40;99.90
51011;DHT22;37038;50.182;8.624;2022-11-04T07:17:01;10.60;99.90
51011;DHT22;37038;50.182;8.624;2022-11-04T07:20:37;10.80;99.90
51011;DHT22;37038;50.182;8.624;2022-11-04T07:36:27;10.50;99.90
51011;DHT22;37038;50.182;8.624;2022-11-04T07:40:27;10.10;99.90
51011;DHT22;37038;50.182;8.624;2022-11-04T07:44:14;9.90;99.90
51011;DHT22;37038;50.182;8.624;2022-11-04T07:48:03;10.00;99.90
51011;DHT22;37038;50.182;8.624;2022-11-04T07:55:07;9.50;99.90
51011;DHT22;37038;50.182;8.624;2022-11-04T07:58:28;9.60;99.90
51011;DHT22;37038;50.182;8.624;2022-11-04T08:10:59;10.20;99.90
51011;DHT22;37038;50.182;8.624;2022-11-04T08:35:33;10.20;99.90
51011;DHT22;37038;50.182;8.624;2022-11-04T08:39:56;10.30;99.90
51011;DHT22;37038;50.182;8.624;2022-11-04T08:43:50;10.80;99.90
51011;DHT22;37038;50.182;8.624;2022-11-04T08:47:01;10.40;99.90
51011;DHT22;37038;50.182;8.624;2022-11-04T08:51:13;10.40;99.90
51011;DHT22;37038;50.182;8.624;2022-11-04T08:55:07;10.10;99.90
51011;DHT22;37038;50.182;8.624;2022-11-04T11:03:34;12.30;99.90
51011;DHT22;37038;50.182;8.624;2022-11-04T11:28:05;13.00;99.90
51011;DHT22;37038;50.182;8.624;2022-11-04T12:14:36;14.30;99.90
51011;DHT22;37038;50.182;8.624;2022-11-04T12:32:11;15.40;99.90
51011;DHT22;37038;50.182;8.624;2022-11-04T12:40:26;13.30;99.90
51011;DHT22;37038;50.182;8.624;2022-11-04T13:23:28;13.10;99.90
51011;DHT22;37038;50.182;8.624;2022-11-04T16:19:00;11.90;99.90
51011;DHT22;37038;50.182;8.624;2022-11-04T16:21:57;12.10;99.90
51011;DHT22;37038;50.182;8.624;2022-11-04T16:25:05;12.00;99.90
51011;DHT22;37038;50.182;8.624;2022-11-04T16:28:38;11.60;99.90
51011;DHT22;37038;50.182;8.624;2022-11-04T16:34:14;11.50;99.90
51011;DHT22;37038;50.182;8.624;2022-11-04T16:37:06;11.50;99.90
51011;DHT22;37038;50.182;8.624;2022-11-04T16:40:48;11.40;99.90
51011;DHT22;37038;50.182;8.624;2022-11-04T16:43:47;11.40;99.90
51011;DHT22;37038;50.182;8.624;2022-11-04T16:47:05;11.30;99.90
51011;DHT22;37038;50.182;8.624;2022-11-04T16:50:10;11.10;99.90
51011;DHT22;37038;50.182;8.624;2022-11-04T16:53:02;11.00;99.90
51011;DHT22;37038;50.182;8.624;2022-11-04T16:55:59;11.20;99.90
51011;DHT22;37038;50.182;8.624;2022-11-04T16:58:57;11.00;99.90
51011;DHT22;37038;50.182;8.624;2022-11-04T17:01:45;10.90;99.90
51011;DHT22;37038;50.182;8.624;2022-11-04T17:04:34;11.00;99.90
51011;DHT22;37038;50.182;8.624;2022-11-04T17:07:22;10.90;99.90
51011;DHT22;37038;50.182;8.624;2022-11-04T17:10:36;11.10;99.90
51011;DHT22;37038;50.182;8.624;2022-11-04T17:13:27;10.90;99.90
51011;DHT22;37038;50.182;8.624;2022-11-04T17:16:35;10.80;99.90
51011;DHT22;37038;50.182;8.624;2022-11-04T17:19:26;10.70;99.90
51011;DHT22;37038;50.182;8.624;2022-11-04T17:22:21;10.80;99.90
51011;DHT22;37038;50.182;8.624;2022-11-04T17:25:18;10.90;99.90
51011;DHT22;37038;50.182;8.624;2022-11-04T17:28:10;11.10;99.90
51011;DHT22;37038;50.182;8.624;2022-11-04T17:31:02;11.10;99.90
51011;DHT22;37038;50.182;8.624;2022-11-04T17:33:54;11.00;99.90
51011;DHT22;37038;50.182;8.624;2022-11-04T17:36:48;11.00;99.90
51011;DHT22;37038;50.182;8.624;2022-11-04T17:39:54;11.20;99.90
51011;DHT22;37038;50.182;8.624;2022-11-04T17:42:45;11.20;99.90
51011;DHT22;37038;50.182;8.624;2022-11-04T17:45:58;11.20;99.90
51011;DHT22;37038;50.182;8.624;2022-11-04T17:49:15;11.30;99.90
51011;DHT22;37038;50.182;8.624;2022-11-04T17:52:15;11.50;99.90
51011;DHT22;37038;50.182;8.624;2022-11-04T17:55:04;11.30;99.90
51011;DHT22;37038;50.182;8.624;2022-11-04T17:57:56;11.30;99.90
51011;DHT22;37038;50.182;8.624;2022-11-04T18:00:45;11.30;99.90
51011;DHT22;37038;50.182;8.624;2022-11-04T18:03:33;11.40;99.90
51011;DHT22;37038;50.182;8.624;2022-11-04T18:06:28;11.40;99.90
51011;DHT22;37038;50.182;8.624;2022-11-04T18:09:17;11.00;99.90
51011;DHT22;37038;50.182;8.624;2022-11-04T18:12:11;10.90;99.90
51011;DHT22;37038;50.182;8.624;2022-11-04T18:15:18;10.70;99.90
51011;DHT22;37038;50.182;8.624;2022-11-04T18:18:09;10.70;99.90
51011;DHT22;37038;50.182;8.624;2022-11-04T18:21:02;10.40;99.90
51011;DHT22;37038;50.182;8.624;2022-11-04T18:23:53;10.10;99.90
51011;DHT22;37038;50.182;8.624;2022-11-04T18:26:43;10.10;99.90
51011;DHT22;37038;50.182;8.624;2022-11-04T18:29:35;10.30;99.90
51011;DHT22;37038;50.182;8.624;2022-11-04T18:32:23;10.50;99.90
51011;DHT22;37038;50.182;8.624;2022-11-04T18:35:12;10.50;99.90
51011;DHT22;37038;50.182;8.624;2022-11-04T18:38:00;10.60;99.90
51011;DHT22;37038;50.182;8.624;2022-11-04T18:40:48;10.60;99.90
51011;DHT22;37038;50.182;8.624;2022-11-04T18:43:37;10.60;99.90
51011;DHT22;37038;50.182;8.624;2022-11-04T18:46:26;10.80;99.90
51011;DHT22;37038;50.182;8.624;2022-11-04T18:49:15;10.80;99.90
51011;DHT22;37038;50.182;8.624;2022-11-04T18:52:05;10.90;99.90
51011;DHT22;37038;50.182;8.624;2022-11-04T18:54:53;11.00;99.90
51011;DHT22;37038;50.182;8.624;2022-11-04T18:57:44;11.00;99.90
51011;DHT22;37038;50.182;8.624;2022-11-04T19:00:33;10.90;99.90
51011;DHT22;37038;50.182;8.624;2022-11-04T19:03:24;11.00;99.90
51011;DHT22;37038;50.182;8.624;2022-11-04T19:06:18;10.90;99.90
51011;DHT22;37038;50.182;8.624;2022-11-04T19:09:10;10.80;99.90
51011;DHT22;37038;50.182;8.624;2022-11-04T19:12:20;10.90;99.90
51011;DHT22;37038;50.182;8.624;2022-11-04T19:15:26;11.10;99.90
51011;DHT22;37038;50.182;8.624;2022-11-04T19:18:15;11.10;99.90
51011;DHT22;37038;50.182;8.624;2022-11-04T19:21:11;11.10;99.90
51011;DHT22;37038;50.182;8.624;2022-11-04T19:24:00;11.00;99.90
51011;DHT22;37038;50.182;8.624;2022-11-04T19:26:48;11.00;99.90
51011;DHT22;37038;50.182;8.624;2022-11-04T19:29:37;11.10;99.90
51011;DHT22;37038;50.182;8.624;2022-11-04T19:32:25;11.00;99.90
51011;DHT22;37038;50.182;8.624;2022-11-04T19:35:14;10.90;99.90
51011;DHT22;37038;50.182;8.624;2022-11-04T19:38:02;10.90;99.90
51011;DHT22;37038;50.182;8.624;2022-11-04T19:40:52;11.00;99.90
51011;DHT22;37038;50.182;8.624;2022-11-04T19:43:41;11.00;99.90
51011;DHT22;37038;50.182;8.624;2022-11-04T19:46:29;10.90;99.90
51011;DHT22;37038;50.182;8.624;2022-11-04T19:49:21;11.00;99.90
51011;DHT22;37038;50.182;8.624;2022-11-04T19:52:09;10.90;99.90
51011;DHT22;37038;50.182;8.624;2022-11-04T19:54:58;10.80;99.90
51011;DHT22;37038;50.182;8.624;2022-11-04T19:57:47;10.60;99.90
51011;DHT22;37038;50.182;8.624;2022-11-04T20:00:35;10.70;99.90
51011;DHT22;37038;50.182;8.624;2022-11-04T20:03:24;10.70;99.90
51011;DHT22;37038;50.182;8.624;2022-11-04T20:06:16;10.90;99.90
51011;DHT22;37038;50.182;8.624;2022-11-04T20:09:11;10.80;99.90
51011;DHT22;37038;50.182;8.624;2022-11-04T20:11:59;11.00;99.90
51011;DHT22;37038;50.182;8.624;2022-11-04T20:15:07;11.00;99.90
51011;DHT22;37038;50.182;8.624;2022-11-04T20:17:56;11.00;99.90
51011;DHT22;37038;50.182;8.624;2022-11-04T20:20:45;11.00;99.90
51011;DHT22;37038;50.182;8.624;2022-11-04T20:23:35;11.30;99.90
51011;DHT22;37038;50.182;8.624;2022-11-04T20:26:28;11.30;99.90
51011;DHT22;37038;50.182;8.624;2022-11-04T20:29:25;11.20;99.90
51011;DHT22;37038;50.182;8.624;2022-11-04T20:32:16;11.10;99.90
51011;DHT22;37038;50.182;8.624;2022-11-04T20:35:05;11.10;99.90
51011;DHT22;37038;50.182;8.624;2022-11-04T20:37:56;11.50;99.90
51011;DHT22;37038;50.182;8.624;2022-11-04T20:40:49;11.50;99.90
51011;DHT22;37038;50.182;8.624;2022-11-04T20:43:42;11.60;99.90
51011;DHT22;37038;50.182;8.624;2022-11-04T20:46:36;11.30;99.90
51011;DHT22;37038;50.182;8.624;2022-11-04T20:49:26;10.80;99.90
51011;DHT22;37038;50.182;8.624;2022-11-04T20:52:20;10.90;99.90
51011;DHT22;37038;50.182;8.624;2022-11-04T21:08:37;10.30;99.90
51011;DHT22;37038;50.182;8.624;2022-11-04T21:11:28;10.60;99.90
51011;DHT22;37038;50.182;8.624;2022-11-04T21:14:19;10.50;99.90
51011;DHT22;37038;50.182;8.624;2022-11-04T21:17:11;10.50;99.90
51011;DHT22;37038;50.182;8.624;2022-11-04T21:20:04;10.50;99.90
51011;DHT22;37038;50.182;8.624;2022-11-04T21:22:54;10.30;99.90
51011;DHT22;37038;50.182;8.624;2022-11-04T21:26:04;10.20;99.90
51011;DHT22;37038;50.182;8.624;2022-11-04T21:29:10;10.20;99.90
51011;DHT22;37038;50.182;8.624;2022-11-04T21:32:03;10.30;99.90
51011;DHT22;37038;50.182;8.624;2022-11-04T21:34:51;10.30;99.90
51011;DHT22;37038;50.182;8.624;2022-11-04T21:37:42;10.30;99.90
51011;DHT22;37038;50.182;8.624;2022-11-04T21:43:17;10.10;99.90
51011;DHT22;37038;50.182;8.624;2022-11-04T21:46:08;10.10;99.90
51011;DHT22;37038;50.182;8.624;2022-11-04T21:49:06;10.00;99.90
51011;DHT22;37038;50.182;8.624;2022-11-04T21:52:04;9.90;99.90
51011;DHT22;37038;50.182;8.624;2022-11-04T21:54:55;10.00;99.90
51011;DHT22;37038;50.182;8.624;2022-11-04T21:57:47;9.90;99.90
51011;DHT22;37038;50.182;8.624;2022-11-04T22:03:20;9.80;99.90
51011;DHT22;37038;50.182;8.624;2022-11-04T22:06:52;9.80;99.90
51011;DHT22;37038;50.182;8.624;2022-11-04T22:09:48;9.80;99.90
51011;DHT22;37038;50.182;8.624;2022-11-04T22:12:48;9.70;99.90
51011;DHT22;37038;50.182;8.624;2022-11-04T22:15:56;9.70;99.90
51011;DHT22;37038;50.182;8.624;2022-11-04T22:19:00;9.70;99.90
51011;DHT22;37038;50.182;8.624;2022-11-04T22:22:01;9.80;99.90
51011;DHT22;37038;50.182;8.624;2022-11-04T22:25:31;9.80;99.90
51011;DHT22;37038;50.182;8.624;2022-11-04T22:28:29;10.00;99.90
51011;DHT22;37038;50.182;8.624;2022-11-04T22:58:33;9.70;99.90
51011;DHT22;37038;50.182;8.624;2022-11-04T23:02:10;9.90;99.90
51011;DHT22;37038;50.182;8.624;2022-11-04T23:05:10;10.30;99.90
51011;DHT22;37038;50.182;8.624;2022-11-04T23:08:15;10.10;99.90
51011;DHT22;37038;50.182;8.624;2022-11-04T23:11:39;9.80;99.90
51011;DHT22;37038;50.182;8.624;2022-11-04T23:15:01;9.40;99.90
51011;DHT22;37038;50.182;8.624;2022-11-04T23:18:31;9.40;99.90
51011;DHT22;37038;50.182;8.624;2022-11-04T23:27:01;9.50;99.90
51011;DHT22;37038;50.182;8.624;2022-11-04T23:29:49;9.60;99.90
51011;DHT22;37038;50.182;8.624;2022-11-04T23:33:00;9.50;99.90
51011;DHT22;37038;50.182;8.624;2022-11-04T23:35:49;9.60;99.90
51011;DHT22;37038;50.182;8.624;2022-11-04T23:38:56;9.60;99.90
51011;DHT22;37038;50.182;8.624;2022-11-04T23:41:45;9.70;99.90
51011;DHT22;37038;50.182;8.624;2022-11-04T23:44:56;9.80;99.90
51011;DHT22;37038;50.182;8.624;2022-11-04T23:48:05;9.90;99.90
51011;DHT22;37038;50.182;8.624;2022-11-04T23:51:21;9.90;99.90
51011;DHT22;37038;50.182;8.624;2022-11-04T23:54:32;9.80;99.90
51011;DHT22;37038;50.182;8.624;2022-11-04T23:57:39;9.80;99.90
